createdAt,value
2023-11-12T00:01:15.633Z,97280.84
2023-11-12T00:03:42.602Z,97279.60
2023-11-12T00:06:09.547Z,97281.63
2023-11-12T00:08:36.488Z,97282.52
2023-11-12T00:11:03.934Z,97281.41
2023-11-12T00:13:31.018Z,97285.08
2023-11-12T00:15:58.310Z,97289.11
2023-11-12T00:18:25.204Z,97292.39
2023-11-12T00:20:52.889Z,97295.13
2023-11-12T00:23:22.190Z,97294.30
2023-11-12T00:25:49.157Z,97297.95
2023-11-12T00:28:16.057Z,97303.71
2023-11-12T00:30:42.913Z,97303.99
2023-11-12T00:33:10.845Z,97306.84
2023-11-12T00:35:38.341Z,97312.58
2023-11-12T00:38:05.609Z,97310.90
2023-11-12T00:40:33.537Z,97314.38
2023-11-12T00:43:00.739Z,97315.02
2023-11-12T00:45:27.741Z,97317.98
2023-11-12T00:47:56.604Z,97318.87
2023-11-12T00:50:23.645Z,97321.23
2023-11-12T00:52:50.663Z,97324.20
2023-11-12T00:55:17.563Z,97329.10
2023-11-12T00:57:45.157Z,97325.02
2023-11-12T01:00:12.721Z,97330.28
2023-11-12T01:02:39.665Z,97328.77
2023-11-12T01:05:07.356Z,97330.60
2023-11-12T01:07:34.330Z,97331.81
2023-11-12T01:10:01.362Z,97332.42
2023-11-12T01:12:28.762Z,97334.17
2023-11-12T01:14:55.797Z,97340.21
2023-11-12T01:17:22.861Z,97341.81
2023-11-12T01:19:49.739Z,97341.42
2023-11-12T01:22:17.408Z,97345.08
2023-11-12T01:24:44.372Z,97342.25
2023-11-12T01:27:11.281Z,97340.48
2023-11-12T01:29:38.205Z,97336.92
2023-11-12T01:32:05.714Z,97336.52
2023-11-12T01:34:32.834Z,97343.61
2023-11-12T01:37:00.364Z,97342.61
2023-11-12T01:39:28.307Z,97340.25
2023-11-12T01:41:55.641Z,97346.70
2023-11-12T01:44:22.567Z,97345.73
2023-11-12T01:46:52.698Z,97346.63
2023-11-12T01:49:21.841Z,97345.77
2023-11-12T01:51:51.466Z,97344.93
2023-11-12T01:54:18.886Z,97343.31
2023-11-12T01:56:46.787Z,97344.61
2023-11-12T01:59:15.450Z,97351.27
2023-11-12T02:01:43.528Z,97352.67
2023-11-12T02:04:11.704Z,97353.81
2023-11-12T02:06:38.727Z,97349.33
2023-11-12T02:09:06.839Z,97350.30
2023-11-12T02:11:33.827Z,97352.52
2023-11-12T02:14:01.045Z,97349.55
2023-11-12T02:16:28.801Z,97353.30
2023-11-12T02:18:56.140Z,97353.37
2023-11-12T02:21:25.642Z,97351.50
2023-11-12T02:23:52.747Z,97352.60
2023-11-12T02:26:20.195Z,97351.98
2023-11-12T02:28:47.116Z,97352.16
2023-11-12T02:31:14.161Z,97349.30
2023-11-12T02:33:41.244Z,97349.04
2023-11-12T02:36:09.148Z,97351.14
2023-11-12T02:38:36.655Z,97347.89
2023-11-12T02:41:03.765Z,97351.25
2023-11-12T02:43:30.686Z,97355.22
2023-11-12T02:45:58.232Z,97359.67
2023-11-12T02:48:27.039Z,97360.92
2023-11-12T02:50:54.311Z,97366.05
2023-11-12T02:53:21.248Z,97366.52
2023-11-12T02:55:48.130Z,97368.09
2023-11-12T02:58:18.434Z,97366.14
2023-11-12T03:00:45.518Z,97368.25
2023-11-12T03:03:14.365Z,97370.92
2023-11-12T03:05:41.601Z,97374.63
2023-11-12T03:08:08.506Z,97371.89
2023-11-12T03:10:36.689Z,97370.91
2023-11-12T03:13:03.681Z,97372.77
2023-11-12T03:15:30.721Z,97376.70
2023-11-12T03:17:58.615Z,97379.30
2023-11-12T03:20:25.644Z,97381.90
2023-11-12T03:22:52.644Z,97383.83
2023-11-12T03:25:19.519Z,97388.27
2023-11-12T03:27:46.453Z,97392.15
2023-11-12T03:30:14.650Z,97394.23
2023-11-12T03:32:41.845Z,97395.91
2023-11-12T03:35:09.825Z,97400.52
2023-11-12T03:37:37.744Z,97399.98
2023-11-12T03:40:05.779Z,97402.10
2023-11-12T03:42:33.265Z,97401.06
2023-11-12T03:45:00.212Z,97401.77
2023-11-12T03:47:27.257Z,97398.12
2023-11-12T03:49:54.212Z,97402.33
2023-11-12T03:52:21.176Z,97404.33
2023-11-12T03:54:48.150Z,97410.52
2023-11-12T03:57:15.760Z,97410.73
2023-11-12T03:59:42.969Z,97414.21
2023-11-12T04:02:10.160Z,97411.48
2023-11-12T04:04:37.327Z,97413.56
2023-11-12T04:07:06.465Z,97411.14
2023-11-12T04:09:33.358Z,97410.05
2023-11-12T04:12:00.476Z,97409.66
2023-11-12T04:14:27.364Z,97407.52
2023-11-12T04:16:54.333Z,97412.73
2023-11-12T04:19:21.257Z,97413.02
2023-11-12T04:21:48.786Z,97411.77
2023-11-12T04:24:16.064Z,97412.80
2023-11-12T04:26:43.232Z,97413.86
2023-11-12T04:29:10.442Z,97411.81
2023-11-12T04:31:37.970Z,97417.02
2023-11-12T04:34:05.200Z,97422.20
2023-11-12T04:36:36.707Z,97422.33
2023-11-12T04:39:04.604Z,97423.15
2023-11-12T04:41:31.565Z,97424.71
2023-11-12T04:43:58.689Z,97422.92
2023-11-12T04:46:26.624Z,97424.60
2023-11-12T04:48:53.540Z,97428.90
2023-11-12T04:51:21.292Z,97427.88
2023-11-12T04:53:49.446Z,97431.26
2023-11-12T04:56:16.705Z,97431.16
2023-11-12T04:58:43.639Z,97435.89
2023-11-12T05:01:10.648Z,97433.70
2023-11-12T05:03:37.688Z,97439.02
2023-11-12T05:06:05.460Z,97444.95
2023-11-12T05:08:32.731Z,97445.15
2023-11-12T05:10:59.818Z,97445.30
2023-11-12T05:13:27.248Z,97452.02
2023-11-12T05:15:54.411Z,97461.98
2023-11-12T05:18:22.737Z,97458.63
2023-11-12T05:20:49.823Z,97462.14
2023-11-12T05:23:17.816Z,97463.45
2023-11-12T05:25:46.328Z,97462.20
2023-11-12T05:28:13.565Z,97467.89
2023-11-12T05:30:40.990Z,97468.84
2023-11-12T05:33:07.958Z,97465.98
2023-11-12T05:35:34.843Z,97475.09
2023-11-12T05:38:01.841Z,97479.23
2023-11-12T05:40:30.663Z,97482.55
2023-11-12T05:42:59.101Z,97479.21
2023-11-12T05:45:26.301Z,97486.58
2023-11-12T05:47:53.531Z,97489.07
2023-11-12T05:50:20.494Z,97490.60
2023-11-12T05:52:48.752Z,97489.16
2023-11-12T05:55:16.249Z,97496.69
2023-11-12T05:57:43.569Z,97500.27
2023-11-12T06:00:12.194Z,97502.77
2023-11-12T06:02:39.748Z,97506.56
2023-11-12T06:05:07.692Z,97507.29
2023-11-12T06:07:34.660Z,97514.67
2023-11-12T06:10:01.619Z,97519.13
2023-11-12T06:12:28.614Z,97521.58
2023-11-12T06:14:55.534Z,97522.19
2023-11-12T06:17:22.412Z,97527.17
2023-11-12T06:19:49.616Z,97526.84
2023-11-12T06:22:16.952Z,97528.52
2023-11-12T06:24:44.095Z,97532.80
2023-11-12T06:27:12.133Z,97533.41
2023-11-12T06:29:39.407Z,97536.58
2023-11-12T06:32:08.165Z,97539.59
2023-11-12T06:34:36.363Z,97540.88
2023-11-12T06:37:04.416Z,97543.81
2023-11-12T06:39:32.212Z,97543.05
2023-11-12T06:41:59.325Z,97546.19
2023-11-12T06:44:26.248Z,97546.83
2023-11-12T06:46:53.252Z,97547.48
2023-11-12T06:49:20.236Z,97549.76
2023-11-12T06:51:47.232Z,97548.49
2023-11-12T06:54:14.335Z,97553.36
2023-11-12T06:56:41.258Z,97558.42
2023-11-12T06:59:08.175Z,97557.90
2023-11-12T07:01:35.394Z,97565.09
2023-11-12T07:04:02.626Z,97567.17
2023-11-12T07:06:29.895Z,97570.17
2023-11-12T07:08:56.864Z,97572.69
2023-11-12T07:11:23.829Z,97573.90
2023-11-12T07:13:50.737Z,97574.88
2023-11-12T07:16:19.040Z,97580.70
2023-11-12T07:18:53.944Z,97582.59
2023-11-12T07:21:28.343Z,97585.54
2023-11-12T07:23:56.480Z,97582.94
2023-11-12T07:26:25.770Z,97587.94
2023-11-12T07:28:53.493Z,97585.37
2023-11-12T07:31:23.333Z,97590.50
2023-11-12T07:33:50.991Z,97588.17
2023-11-12T07:36:18.051Z,97590.05
2023-11-12T07:38:46.197Z,97589.75
2023-11-12T07:41:13.203Z,97596.81
2023-11-12T07:43:40.249Z,97595.43
2023-11-12T07:46:07.292Z,97596.79
2023-11-12T07:48:34.861Z,97600.48
2023-11-12T07:51:02.029Z,97602.66
2023-11-12T07:53:29.728Z,97605.23
2023-11-12T07:55:56.764Z,97610.27
2023-11-12T07:58:23.634Z,97604.52
2023-11-12T08:00:50.569Z,97606.18
2023-11-12T08:03:17.565Z,97609.48
2023-11-12T08:05:44.654Z,97610.53
2023-11-12T08:08:11.511Z,97610.58
2023-11-12T08:10:38.617Z,97616.64
2023-11-12T08:13:05.810Z,97615.45
2023-11-12T08:15:32.802Z,97618.58
2023-11-12T08:17:59.962Z,97622.94
2023-11-12T08:20:27.046Z,97626.45
2023-11-12T08:22:53.975Z,97629.94
2023-11-12T08:25:20.849Z,97634.91
2023-11-12T08:27:48.105Z,97637.08
2023-11-12T08:30:15.375Z,97640.61
2023-11-12T08:32:43.009Z,97638.72
2023-11-12T08:35:10.918Z,97644.27
2023-11-12T08:37:38.330Z,97648.23
2023-11-12T08:40:06.524Z,97651.42
2023-11-12T08:42:33.547Z,97656.06
2023-11-12T08:45:01.245Z,97658.47
2023-11-12T08:47:28.239Z,97658.87
2023-11-12T08:49:55.203Z,97662.80
2023-11-12T08:52:23.187Z,97663.60
2023-11-12T08:54:52.519Z,97671.50
2023-11-12T08:57:19.704Z,97671.23
2023-11-12T08:59:47.591Z,97674.42
2023-11-12T09:02:14.593Z,97675.38
2023-11-12T09:04:41.511Z,97676.61
2023-11-12T09:07:08.501Z,97678.84
2023-11-12T09:09:35.558Z,97678.60
2023-11-12T09:12:02.601Z,97682.74
2023-11-12T09:14:29.950Z,97683.98
2023-11-12T09:16:57.006Z,97681.65
2023-11-12T09:19:23.874Z,97687.23
2023-11-12T09:21:51.380Z,97685.46
2023-11-12T09:24:18.295Z,97686.52
2023-11-12T09:26:46.246Z,97695.54
2023-11-12T09:29:13.133Z,97692.27
2023-11-12T09:31:39.981Z,97690.89
2023-11-12T09:34:07.066Z,97696.46
2023-11-12T09:36:35.149Z,97691.74
2023-11-12T09:39:04.970Z,97695.17
2023-11-12T09:41:35.740Z,97697.78
2023-11-12T09:44:05.180Z,97699.91
2023-11-12T09:46:32.591Z,97699.87
2023-11-12T09:48:59.915Z,97697.00
2023-11-12T09:51:28.244Z,97697.53
2023-11-12T09:53:56.014Z,97700.75
2023-11-12T09:56:26.047Z,97701.06
2023-11-12T09:58:54.633Z,97699.39
2023-11-12T10:01:21.956Z,97697.47
2023-11-12T10:03:50.270Z,97696.84
2023-11-12T10:06:22.152Z,97694.45
2023-11-12T10:08:51.747Z,97695.48
2023-11-12T10:11:27.451Z,97696.52
2023-11-12T10:13:56.181Z,97697.23
2023-11-12T10:16:30.833Z,97696.55
2023-11-12T10:19:15.802Z,97694.34
2023-11-12T10:21:59.864Z,97693.34
2023-11-12T10:24:29.511Z,97693.30
2023-11-12T10:27:05.194Z,97691.45
2023-11-12T10:29:32.674Z,97694.91
2023-11-12T10:31:59.773Z,97694.21
2023-11-12T10:34:28.894Z,97691.90
2023-11-12T10:37:06.556Z,97695.80
2023-11-12T10:40:19.878Z,97688.77
2023-11-12T10:54:29.587Z,97700.34
2023-11-12T10:56:56.881Z,97689.77
2023-11-12T10:59:24.617Z,97692.29
2023-11-12T11:01:53.225Z,97692.21
2023-11-12T11:04:22.811Z,97689.38
2023-11-12T11:06:49.944Z,97682.73
2023-11-12T11:09:19.222Z,97682.46
2023-11-12T11:11:50.414Z,97685.31
2023-11-12T11:14:28.754Z,97682.64
2023-11-12T11:16:55.824Z,97685.46
2023-11-12T11:19:46.187Z,97684.55
2023-11-12T11:22:32.559Z,97685.15
2023-11-12T11:25:20.625Z,97685.02
2023-11-12T11:27:48.240Z,97686.39
2023-11-12T11:30:17.551Z,97684.64
2023-11-12T11:32:58.811Z,97690.70
2023-11-12T11:35:27.447Z,97688.49
2023-11-12T11:38:11.269Z,97693.77
2023-11-12T11:40:39.921Z,97696.64
2023-11-12T11:43:22.687Z,97697.17
2023-11-12T11:46:05.177Z,97699.07
2023-11-12T11:48:48.253Z,97702.57
2023-11-12T11:51:31.987Z,97703.31
2023-11-12T11:54:04.880Z,97701.30
2023-11-12T11:56:32.369Z,97704.21
2023-11-12T11:58:59.644Z,97703.37
2023-11-12T12:01:27.545Z,97702.92
2023-11-12T12:04:11.157Z,97705.27
2023-11-12T12:06:47.720Z,97704.51
2023-11-12T12:09:18.727Z,97701.70
2023-11-12T12:11:48.561Z,97705.21
2023-11-12T12:14:17.628Z,97703.75
2023-11-12T12:16:46.471Z,97701.61
2023-11-12T12:19:20.767Z,97701.92
2023-11-12T12:21:50.929Z,97699.92
2023-11-12T12:24:20.573Z,97700.02
2023-11-12T12:26:48.125Z,97701.10
2023-11-12T12:29:17.267Z,97704.76
2023-11-12T12:31:46.166Z,97703.90
2023-11-12T12:34:16.421Z,97701.45
2023-11-12T12:37:08.222Z,97705.86
2023-11-12T12:39:52.346Z,97701.09
2023-11-12T12:42:20.503Z,97704.31
2023-11-12T12:44:49.656Z,97704.52
2023-11-12T12:47:36.898Z,97702.45
2023-11-12T12:50:26.999Z,97712.19
2023-11-12T12:53:13.958Z,97713.88
2023-11-12T12:55:42.424Z,97713.55
2023-11-12T12:58:09.549Z,97715.31
2023-11-12T13:00:37.392Z,97715.27
2023-11-12T13:03:04.508Z,97716.98
2023-11-12T13:05:33.096Z,97715.61
2023-11-12T13:08:00.249Z,97720.73
2023-11-12T13:10:28.138Z,97721.35
2023-11-12T13:12:57.423Z,97719.34
2023-11-12T13:15:26.787Z,97720.41
2023-11-12T13:17:55.714Z,97719.35
2023-11-12T13:20:26.717Z,97721.64
2023-11-12T13:22:56.669Z,97723.04
2023-11-12T13:25:24.407Z,97720.96
2023-11-12T13:27:51.597Z,97721.34
2023-11-12T13:30:20.707Z,97722.57
2023-11-12T13:32:48.223Z,97727.52
2023-11-12T13:35:15.553Z,97729.10
2023-11-12T13:37:42.395Z,97734.39
2023-11-12T13:40:15.060Z,97740.38
2023-11-12T13:42:43.548Z,97741.66
2023-11-12T13:45:27.904Z,97740.10
2023-11-12T13:47:55.657Z,97744.48
2023-11-12T13:50:27.434Z,97741.50
2023-11-12T13:52:59.849Z,97737.83
2023-11-12T13:55:29.259Z,97737.14
2023-11-12T13:57:58.302Z,97738.34
2023-11-12T14:00:31.850Z,97749.04
2023-11-12T14:03:02.348Z,97753.30
2023-11-12T14:05:29.816Z,97753.58
2023-11-12T14:07:58.131Z,97757.77
2023-11-12T14:10:26.455Z,97761.48
2023-11-12T14:12:53.933Z,97764.20
2023-11-12T14:15:23.668Z,97764.20
2023-11-12T14:17:50.798Z,97768.89
2023-11-12T14:20:22.611Z,97769.02
2023-11-12T14:22:49.970Z,97769.48
2023-11-12T14:25:20.535Z,97774.25
2023-11-12T14:27:50.359Z,97779.27
2023-11-12T14:30:19.648Z,97781.84
2023-11-12T14:32:47.684Z,97779.81
2023-11-12T14:35:17.823Z,97780.98
2023-11-12T14:37:45.334Z,97784.36
2023-11-12T14:40:13.479Z,97788.52
2023-11-12T14:42:41.578Z,97791.80
2023-11-12T14:45:21.139Z,97793.79
2023-11-12T14:47:55.594Z,97791.77
2023-11-12T14:50:23.130Z,97793.41
2023-11-12T14:52:52.142Z,97794.13
2023-11-12T14:55:25.288Z,97794.59
2023-11-12T14:57:56.594Z,97802.25
2023-11-12T15:00:29.687Z,97796.66
2023-11-12T15:02:58.897Z,97801.24
2023-11-12T15:05:26.913Z,97802.90
2023-11-12T15:07:53.803Z,97807.34
2023-11-12T15:10:22.257Z,97807.27
2023-11-12T15:12:49.869Z,97813.48
2023-11-12T15:15:20.390Z,97814.35
2023-11-12T15:17:47.966Z,97821.16
2023-11-12T15:20:16.011Z,97821.39
2023-11-12T15:22:45.469Z,97823.04
2023-11-12T15:25:15.044Z,97819.48
2023-11-12T15:27:44.968Z,97818.54
2023-11-12T15:30:13.856Z,97818.95
2023-11-12T15:32:42.856Z,97817.59
2023-11-12T15:35:11.317Z,97817.15
2023-11-12T15:37:40.787Z,97823.08
2023-11-12T15:40:19.711Z,97821.67
2023-11-12T15:42:51.536Z,97822.81
2023-11-12T15:45:19.784Z,97823.84
2023-11-12T15:47:47.751Z,97825.37
2023-11-12T15:50:15.953Z,97821.85
2023-11-12T15:52:44.068Z,97823.39
2023-11-12T15:55:14.246Z,97823.59
2023-11-12T15:57:42.145Z,97825.05
2023-11-12T16:00:14.643Z,97828.48
2023-11-12T16:02:44.500Z,97832.08
2023-11-12T16:05:12.568Z,97832.33
2023-11-12T16:07:41.170Z,97832.48
2023-11-12T16:10:11.693Z,97836.00
2023-11-12T16:12:39.678Z,97836.64
2023-11-12T16:15:13.618Z,97837.88
2023-11-12T16:17:43.573Z,97837.34
2023-11-12T16:20:13.579Z,97838.80
2023-11-12T16:22:41.395Z,97842.02
2023-11-12T16:25:10.178Z,97843.66
2023-11-12T16:27:39.102Z,97844.56
2023-11-12T16:30:09.045Z,97844.91
2023-11-12T16:32:37.662Z,97853.33
2023-11-12T16:35:08.541Z,97854.50
2023-11-12T16:37:35.608Z,97859.06
2023-11-12T16:40:02.746Z,97858.85
2023-11-12T16:42:29.977Z,97862.70
2023-11-12T16:44:57.925Z,97866.66
2023-11-12T16:47:25.553Z,97863.02
2023-11-12T16:49:59.516Z,97863.96
2023-11-12T16:52:27.028Z,97866.51
2023-11-12T16:54:56.041Z,97872.71
2023-11-12T16:57:22.940Z,97872.90
2023-11-12T16:59:49.994Z,97872.98
2023-11-12T17:02:19.756Z,97874.45
2023-11-12T17:04:46.767Z,97876.23
2023-11-12T17:07:14.284Z,97875.35
2023-11-12T17:09:43.064Z,97871.81
2023-11-12T17:12:14.008Z,97867.08
2023-11-12T17:14:41.931Z,97872.64
2023-11-12T17:17:08.802Z,97872.91
2023-11-12T17:19:36.656Z,97879.08
2023-11-12T17:22:04.281Z,97880.38
2023-11-12T17:24:33.300Z,97880.74
2023-11-12T17:27:01.562Z,97887.98
2023-11-12T17:29:28.714Z,97885.11
2023-11-12T17:31:55.635Z,97893.00
2023-11-12T17:34:22.709Z,97894.81
2023-11-12T17:36:49.922Z,97899.45
2023-11-12T17:39:17.210Z,97901.97
2023-11-12T17:41:47.803Z,97905.34
2023-11-12T17:44:17.195Z,97900.86
2023-11-12T17:46:46.174Z,97904.30
2023-11-12T17:49:13.954Z,97905.79
2023-11-12T17:51:42.857Z,97902.98
2023-11-12T17:54:10.460Z,97901.92
2023-11-12T17:56:38.400Z,97900.63
2023-11-12T17:59:06.270Z,97903.98
2023-11-12T18:01:33.780Z,97904.40
2023-11-12T18:04:01.236Z,97906.28
2023-11-12T18:06:28.470Z,97905.30
2023-11-12T18:08:55.385Z,97911.14
2023-11-12T18:11:22.446Z,97914.74
2023-11-12T18:13:49.574Z,97911.27
2023-11-12T18:16:16.639Z,97915.52
2023-11-12T18:18:43.984Z,97917.13
2023-11-12T18:21:13.485Z,97921.46
2023-11-12T18:23:41.559Z,97923.71
2023-11-12T18:26:10.295Z,97924.42
2023-11-12T18:28:38.740Z,97922.74
2023-11-12T18:31:06.988Z,97927.77
2023-11-12T18:33:34.301Z,97931.13
2023-11-12T18:36:01.251Z,97935.50
2023-11-12T18:38:28.800Z,97931.66
2023-11-12T18:40:55.852Z,97933.60
2023-11-12T18:43:26.147Z,97932.68
2023-11-12T18:45:57.508Z,97929.79
2023-11-12T18:48:25.486Z,97928.39
2023-11-12T18:50:53.822Z,97927.33
2023-11-12T18:53:22.653Z,97928.80
2023-11-12T18:55:49.707Z,97934.11
2023-11-12T18:58:19.357Z,97937.24
2023-11-12T19:00:46.371Z,97938.42
2023-11-12T19:03:14.192Z,97947.22
2023-11-12T19:05:42.359Z,97950.18
2023-11-12T19:08:14.664Z,97952.23
2023-11-12T19:10:44.650Z,97961.13
2023-11-12T19:13:12.310Z,97959.91
2023-11-12T19:15:39.319Z,97962.38
2023-11-12T19:18:07.987Z,97967.79
2023-11-12T19:20:40.777Z,97966.80
2023-11-12T19:23:08.196Z,97974.48
2023-11-12T19:25:35.912Z,97981.28
2023-11-12T19:28:06.455Z,97978.70
2023-11-12T19:30:36.566Z,97979.29
2023-11-12T19:33:03.913Z,97982.08
2023-11-12T19:35:34.573Z,97983.84
2023-11-12T19:38:06.487Z,97983.78
2023-11-12T19:40:34.128Z,97983.73
2023-11-12T19:43:01.073Z,97983.25
2023-11-12T19:45:33.521Z,97987.02
2023-11-12T19:48:00.599Z,97982.29
2023-11-12T19:50:28.845Z,97982.06
2023-11-12T19:52:56.394Z,97978.59
2023-11-12T19:55:23.333Z,97983.89
2023-11-12T19:57:56.274Z,97983.61
2023-11-12T20:00:24.130Z,97987.97
2023-11-12T20:02:52.112Z,97985.36
2023-11-12T20:05:21.010Z,97987.48
2023-11-12T20:07:48.106Z,97988.59
2023-11-12T20:10:15.173Z,97987.40
2023-11-12T20:12:42.250Z,97985.17
2023-11-12T20:15:09.759Z,97988.52
2023-11-12T20:17:37.815Z,97990.98
2023-11-12T20:20:05.419Z,97988.52
2023-11-12T20:22:33.690Z,97988.13
2023-11-12T20:25:00.854Z,97989.50
2023-11-12T20:27:28.002Z,97993.29
2023-11-12T20:29:58.222Z,97992.64
2023-11-12T20:32:25.579Z,97993.48
2023-11-12T20:34:53.889Z,97992.89
2023-11-12T20:37:21.219Z,97995.70
2023-11-12T20:39:50.959Z,97991.44
2023-11-12T20:42:18.052Z,97990.38
2023-11-12T20:44:45.106Z,97996.75
2023-11-12T20:47:13.821Z,97996.73
2023-11-12T20:49:40.900Z,97999.09
2023-11-12T20:52:09.806Z,98000.02
2023-11-12T20:54:38.685Z,98006.52
2023-11-12T20:57:07.859Z,98006.45
2023-11-12T20:59:34.993Z,98010.00
2023-11-12T21:02:10.288Z,98009.23
2023-11-12T21:04:45.847Z,98010.65
2023-11-12T21:07:14.388Z,98007.67
2023-11-12T21:09:43.053Z,98005.52
2023-11-12T21:12:10.676Z,97998.00
2023-11-12T21:14:37.772Z,97997.05
2023-11-12T21:17:05.187Z,97993.90
2023-11-12T21:19:34.990Z,97990.23
2023-11-12T21:22:02.374Z,97987.40
2023-11-12T21:24:29.468Z,97988.20
2023-11-12T21:26:57.805Z,97993.05
2023-11-12T21:29:25.000Z,97992.55
2023-11-12T21:31:54.656Z,97988.23
2023-11-12T21:34:22.929Z,97990.16
2023-11-12T21:36:51.376Z,97989.48
2023-11-12T21:39:20.017Z,97995.64
2023-11-12T21:41:47.924Z,97998.52
2023-11-12T21:44:14.920Z,97996.23
2023-11-12T21:46:43.811Z,97996.84
2023-11-12T21:49:10.860Z,97999.35
2023-11-12T21:51:38.523Z,97998.64
2023-11-12T21:54:06.002Z,97999.96
2023-11-12T21:56:32.927Z,98001.09
2023-11-12T21:58:59.825Z,97997.05
2023-11-12T22:01:26.825Z,98004.05
2023-11-12T22:03:53.938Z,98004.34
2023-11-12T22:06:20.964Z,98004.51
2023-11-12T22:08:47.817Z,98006.90
2023-11-12T22:11:14.743Z,98008.17
2023-11-12T22:13:43.373Z,98009.55
2023-11-12T22:16:10.324Z,98012.40
2023-11-12T22:18:37.313Z,98012.19
2023-11-12T22:21:07.123Z,98015.76
2023-11-12T22:23:34.166Z,98017.61
2023-11-12T22:26:01.087Z,98019.63
2023-11-12T22:28:28.145Z,98018.30
2023-11-12T22:30:55.032Z,98019.84
2023-11-12T22:33:21.955Z,98021.27
2023-11-12T22:35:48.914Z,98023.05
2023-11-12T22:38:15.886Z,98022.63
2023-11-12T22:40:44.331Z,98023.56
2023-11-12T22:43:11.251Z,98024.64
2023-11-12T22:45:38.986Z,98026.97
2023-11-12T22:48:06.085Z,98031.05
2023-11-12T22:50:33.328Z,98033.59
2023-11-12T22:53:00.302Z,98033.71
2023-11-12T22:55:27.267Z,98035.60
2023-11-12T22:57:54.300Z,98036.16
2023-11-12T23:00:40.764Z,98034.48
2023-11-12T23:03:13.682Z,98036.35
2023-11-12T23:05:42.229Z,98038.16
2023-11-12T23:08:09.794Z,98033.54
2023-11-12T23:10:37.553Z,98034.60
2023-11-12T23:13:05.175Z,98035.46
2023-11-12T23:15:32.650Z,98034.47
2023-11-12T23:18:00.623Z,98041.41
2023-11-12T23:20:27.644Z,98040.20
2023-11-12T23:22:54.606Z,98040.33
2023-11-12T23:25:21.662Z,98038.64
2023-11-12T23:27:48.712Z,98043.63
2023-11-12T23:30:15.725Z,98041.29
2023-11-12T23:32:44.155Z,98043.98
2023-11-12T23:35:12.084Z,98046.49
2023-11-12T23:37:39.265Z,98049.87
2023-11-12T23:40:08.539Z,98050.16
2023-11-12T23:42:37.810Z,98048.36
2023-11-12T23:45:07.001Z,98043.79
2023-11-12T23:47:34.516Z,98049.30
2023-11-12T23:50:01.944Z,98043.48
2023-11-12T23:52:29.047Z,98042.85
2023-11-12T23:54:55.987Z,98039.44
2023-11-12T23:57:22.885Z,98043.32
2023-11-12T23:59:49.787Z,98044.92
